| time (UTC) | temp C | wind direction | speed KPH | gust KPH | rain 1hr cm | rain 24hr cm | rain mn cm | humidity % | barometer mb |
| 20260507063044 | 11 | 15 | 3.2 | 8.0 | 0.00 | 0.99 | 0.15 | 92 | 1013.6 |
| 20260507061547 | 11 | 24 | 3.2 | 6.4 | 0.00 | 0.99 | 0.15 | 93 | 1013.6 |
| 20260507060108 | 12 | 348 | 1.6 | 6.4 | 0.00 | 0.99 | 0.15 | 93 | 1013.4 |
| 20260507054554 | 12 | 0 | 0.0 | 0.0 | 0.00 | 1.02 | 0.15 | 93 | 1013.3 |
| 20260507053044 | 11 | 0 | 0.0 | 0.0 | 0.00 | 1.02 | 0.15 | 92 | 1013.0 |
| 20260507051559 | 11 | 0 | 0.0 | 0.0 | 0.00 | 1.02 | 0.15 | 92 | 1012.5 |
| 20260507050050 | 11 | 0 | 0.0 | 0.0 | 0.00 | 1.02 | 0.15 | 92 | 1012.3 |
| 20260507044543 | 11 | 0 | 0.0 | 0.0 | 0.00 | 1.02 | 0.15 | 91 | 1012.3 |
| 20260507043045 | 11 | 0 | 0.0 | 1.6 | 0.00 | 1.02 | 0.15 | 92 | 1012.1 |
| 20260507041544 | 11 | 326 | 0.0 | 4.8 | 0.00 | 1.02 | 0.15 | 91 | 1012.0 |
| 20260507040049 | 11 | 300 | 1.6 | 4.8 | 0.00 | 1.02 | 0.15 | 90 | 1011.9 |
| 20260507034549 | 11 | 263 | 4.8 | 9.7 | 0.00 | 1.02 | 0.15 | 90 | 1012.0 |
| 20260507033051 | 12 | 280 | 4.8 | 8.0 | 0.00 | 1.02 | 0.15 | 90 | 1011.9 |
| 20260507031549 | 12 | 0 | 3.2 | 9.7 | 0.00 | 1.02 | 0.15 | 90 | 1011.8 |
| 20260507030050 | 12 | 0 | 0.0 | 3.2 | 0.00 | 1.02 | 0.15 | 91 | 1011.7 |
| 20260507024547 | 12 | 180 | 0.0 | 8.0 | 0.00 | 1.02 | 0.15 | 91 | 1011.7 |
| 20260507023050 | 12 | 211 | 4.8 | 11.3 | 0.00 | 1.02 | 0.15 | 90 | 1011.8 |
| 20260507021544 | 12 | 182 | 8.0 | 11.3 | 0.00 | 1.02 | 0.15 | 91 | 1011.6 |
| 20260507020100 | 12 | 0 | 0.0 | 3.2 | 0.00 | 1.02 | 0.15 | 91 | 1011.6 |
| 20260507014557 | 12 | 168 | 3.2 | 8.0 | 0.00 | 1.02 | 0.15 | 91 | 1011.4 |
| 20260507013043 | 12 | 243 | 4.8 | 14.5 | 0.00 | 1.02 | 0.15 | 91 | 1011.2 |
| 20260507011549 | 12 | 227 | 11.3 | 19.3 | 0.00 | 1.02 | 0.15 | 92 | 1011.1 |
| 20260507010058 | 12 | 275 | 4.8 | 11.3 | 0.00 | 1.02 | 0.15 | 92 | 1011.0 |
| 20260507004543 | 12 | 286 | 4.8 | 11.3 | 0.00 | 1.04 | 0.15 | 91 | 1011.0 |
| 20260507003046 | 13 | 155 | 8.0 | 14.5 | 0.10 | 1.04 | 0.15 | 90 | 1011.0 |
| 20260507001547 | 12 | 139 | 4.8 | 9.7 | 0.10 | 1.04 | 0.15 | 92 | 1011.2 |
| 20260507000045 | 12 | 162 | 4.8 | 11.3 | 0.10 | 1.04 | 0.15 | 91 | 1011.1 |
| 20260506234547 | 12 | 150 | 1.6 | 4.8 | 0.08 | 1.02 | 0.13 | 91 | 1011.0 |
| 20260506233044 | 12 | 116 | 1.6 | 8.0 | 0.00 | 0.94 | 0.03 | 91 | 1010.9 |
| 20260506231604 | 12 | 5 | 3.2 | 8.0 | 0.00 | 0.94 | 0.03 | 90 | 1010.9 |
| 20260506230106 | 13 | 55 | 1.6 | 4.8 | 0.00 | 0.94 | 0.03 | 89 | 1010.8 |
| 20260506224550 | 13 | 344 | 3.2 | 6.4 | 0.05 | 0.94 | 0.03 | 88 | 1010.6 |
| 20260506223049 | 13 | 0 | 0.0 | 0.0 | 0.05 | 0.94 | 0.03 | 87 | 1010.6 |
| 20260506221608 | 13 | 0 | 0.0 | 4.8 | 0.05 | 0.94 | 0.03 | 84 | 1010.4 |
| 20260506220115 | 14 | 137 | 3.2 | 8.0 | 0.00 | 0.89 | 0.00 | 85 | 1010.4 |
| 20260506214550 | 14 | 245 | 4.8 | 9.7 | 0.00 | 0.86 | 0.86 | 83 | 1010.0 |
| 20260506213104 | 14 | 271 | 1.6 | 9.7 | 0.00 | 0.86 | 0.86 | 82 | 1010.0 |
| 20260506211547 | 15 | 94 | 3.2 | 9.7 | 0.00 | 0.86 | 0.86 | 80 | 1009.9 |
| 20260506210057 | 14 | 142 | 4.8 | 12.9 | 0.00 | 0.86 | 0.86 | 81 | 1010.1 |
| 20260506204556 | 14 | 130 | 6.4 | 11.3 | 0.00 | 0.86 | 0.86 | 82 | 1009.9 |
| 20260506203047 | 15 | 258 | 0.0 | 8.0 | 0.00 | 0.86 | 0.86 | 81 | 1009.5 |
| 20260506201550 | 15 | 0 | 1.6 | 12.9 | 0.00 | 0.86 | 0.86 | 80 | 1009.1 |
| 20260506200048 | 15 | 287 | 9.7 | 17.7 | 0.00 | 0.86 | 0.86 | 79 | 1008.7 |
| 20260506194550 | 15 | 123 | 6.4 | 14.5 | 0.00 | 0.86 | 0.86 | 78 | 1008.2 |
| 20260506193045 | 15 | 125 | 6.4 | 14.5 | 0.00 | 0.86 | 0.86 | 77 | 1008.1 |
| 20260506191551 | 15 | 0 | 0.0 | 17.7 | 0.00 | 0.86 | 0.86 | 76 | 1007.9 |
| 20260506190046 | 16 | 156 | 4.8 | 27.4 | 0.00 | 0.86 | 0.86 | 76 | 1007.6 |
| 20260506184605 | 16 | 145 | 3.2 | 9.7 | 0.00 | 0.86 | 0.86 | 78 | 1007.7 |
| 20260506183048 | 16 | 59 | 4.8 | 11.3 | 0.00 | 0.86 | 0.86 | 79 | 1007.3 |
| 20260506181551 | 16 | 9 | 6.4 | 11.3 | 0.00 | 0.86 | 0.86 | 78 | 1006.9 |
| 20260506180058 | 16 | 92 | 8.0 | 19.3 | 0.15 | 0.86 | 0.86 | 77 | 1006.6 |
| 20260506174547 | 16 | 355 | 9.7 | 32.2 | 0.38 | 0.86 | 0.86 | 80 | 1006.5 |
| 20260506173050 | 16 | 139 | 16.1 | 29.0 | 0.38 | 0.86 | 0.86 | 77 | 1005.8 |
| 20260506171557 | 16 | 126 | 14.5 | 35.4 | 0.38 | 0.86 | 0.86 | 78 | 1005.8 |
| 20260506170053 | 16 | 130 | 16.1 | 37.0 | 0.20 | 0.69 | 0.69 | 78 | 1005.6 |
| 20260506164548 | 18 | 128 | 19.3 | 30.6 | 0.03 | 0.46 | 0.46 | 71 | 1005.3 |
| 20260506163049 | 18 | 107 | 12.9 | 32.2 | 0.08 | 0.46 | 0.46 | 70 | 1005.3 |
| 20260506161546 | 18 | 121 | 19.3 | 32.2 | 0.18 | 0.46 | 0.46 | 70 | 1005.4 |
| 20260506160108 | 18 | 103 | 20.9 | 33.8 | 0.41 | 0.46 | 0.46 | 72 | 1005.3 |
| 20260506154551 | 18 | 125 | 19.3 | 27.4 | 0.36 | 0.43 | 0.43 | 73 | 1005.2 |
| 20260506153046 | 18 | 136 | 16.1 | 30.6 | 0.33 | 0.38 | 0.38 | 72 | 1005.5 |
| 20260506151545 | 17 | 132 | 11.3 | 17.7 | 0.20 | 0.28 | 0.28 | 71 | 1005.8 |
| 20260506150054 | 18 | 128 | 12.9 | 22.5 | 0.00 | 0.05 | 0.05 | 65 | 1005.6 |
| 20260506144559 | 19 | 150 | 11.3 | 24.1 | 0.00 | 0.05 | 0.05 | 62 | 1005.3 |
| 20260506143050 | 20 | 126 | 14.5 | 30.6 | 0.00 | 0.05 | 0.05 | 61 | 1005.4 |
| 20260506141547 | 20 | 101 | 16.1 | 27.4 | 0.00 | 0.05 | 0.05 | 61 | 1005.6 |
| 20260506140050 | 20 | 103 | 14.5 | 24.1 | 0.00 | 0.05 | 0.05 | 62 | 1005.6 |
| 20260506134549 | 20 | 171 | 12.9 | 24.1 | 0.00 | 0.05 | 0.05 | 60 | 1005.8 |
| 20260506133050 | 19 | 115 | 12.9 | 30.6 | 0.00 | 0.05 | 0.05 | 64 | 1005.9 |
| 20260506131557 | 20 | 90 | 8.0 | 17.7 | 0.00 | 0.05 | 0.05 | 64 | 1005.9 |
| 20260506130049 | 20 | 34 | 6.4 | 20.9 | 0.00 | 0.05 | 0.05 | 63 | 1006.0 |
| 20260506124547 | 20 | 71 | 12.9 | 22.5 | 0.00 | 0.05 | 0.05 | 63 | 1006.1 |
| 20260506123052 | 19 | 338 | 14.5 | 20.9 | 0.00 | 0.05 | 0.05 | 71 | 1006.1 |
| 20260506121547 | 19 | 17 | 12.9 | 20.9 | 0.00 | 0.05 | 0.05 | 70 | 1006.1 |
| 20260506120052 | 19 | 10 | 11.3 | 20.9 | 0.00 | 0.05 | 0.05 | 71 | 1006.2 |
| 20260506114551 | 18 | 11 | 6.4 | 17.7 | 0.00 | 0.05 | 0.05 | 72 | 1006.4 |
| 20260506113048 | 18 | 5 | 4.8 | 17.7 | 0.00 | 0.05 | 0.05 | 75 | 1006.6 |
| 20260506111543 | 17 | 332 | 4.8 | 16.1 | 0.00 | 0.05 | 0.05 | 74 | 1006.6 |
| 20260506110048 | 17 | 316 | 1.6 | 12.9 | 0.00 | 0.05 | 0.05 | 76 | 1006.8 |
| 20260506104551 | 17 | 347 | 8.0 | 14.5 | 0.00 | 0.08 | 0.05 | 77 | 1007.0 |
| 20260506103052 | 17 | 41 | 4.8 | 11.3 | 0.00 | 0.08 | 0.05 | 77 | 1007.1 |
| 20260506101550 | 16 | 28 | 6.4 | 12.9 | 0.00 | 0.08 | 0.05 | 80 | 1007.1 |
| 20260506100100 | 17 | 10 | 3.2 | 9.7 | 0.00 | 0.08 | 0.05 | 77 | 1007.4 |
| 20260506094549 | 16 | 0 | 1.6 | 9.7 | 0.00 | 0.08 | 0.05 | 78 | 1007.4 |
| 20260506093045 | 15 | 9 | 3.2 | 12.9 | 0.00 | 0.08 | 0.05 | 82 | 1007.6 |
| 20260506091552 | 15 | 312 | 3.2 | 16.1 | 0.00 | 0.08 | 0.05 | 83 | 1007.7 |
| 20260506090044 | 15 | 311 | 4.8 | 8.0 | 0.00 | 0.08 | 0.05 | 80 | 1007.6 |
| 20260506084543 | 15 | 90 | 3.2 | 6.4 | 0.00 | 0.08 | 0.05 | 82 | 1007.6 |
| 20260506083045 | 14 | 0 | 0.0 | 6.4 | 0.00 | 0.08 | 0.05 | 87 | 1007.8 |
| 20260506081545 | 14 | 0 | 0.0 | 0.0 | 0.00 | 0.08 | 0.05 | 88 | 1007.9 |
| 20260506073050 | 13 | 0 | 0.0 | 3.2 | 0.00 | 0.08 | 0.05 | 93 | 1008.0 |
| 20260506071558 | 12 | 355 | 0.0 | 3.2 | 0.00 | 0.08 | 0.05 | 94 | 1007.8 |